Time;durP1;ratioP1;P1;durP2;ratioP2;P2;SDS_P1;SDS_P2;PMS_P1;PMS_P2;Temp;Humidity;BMP_temperature;BMP_pressure;BME280_temperature;BME280_humidity;BME280_pressure;Samples;Min_cycle;Max_cycle;Signal;HPM_P1;HPM_P2
2021/09/26 00:00:41;;;;;;;21.53;19.53;;;18.50;99.90;;;;;;5128916;27;20468;-61
2021/09/26 00:03:08;;;;;;;18.67;17.00;;;18.40;99.90;;;;;;5135309;27;20554;-61
2021/09/26 00:05:35;;;;;;;17.87;16.27;;;18.40;99.90;;;;;;5136295;27;20466;-62
2021/09/26 00:08:02;;;;;;;18.00;16.40;;;18.40;99.90;;;;;;5135987;27;20470;-61
2021/09/26 00:10:29;;;;;;;18.20;16.50;;;18.40;99.90;;;;;;5138639;27;20470;-61
2021/09/26 00:12:56;;;;;;;21.67;19.70;;;18.40;99.90;;;;;;5136227;27;20936;-62
2021/09/26 00:15:24;;;;;;;18.20;16.60;;;18.40;99.90;;;;;;5135226;27;20468;-62
2021/09/26 00:17:53;;;;;;;20.43;18.53;;;18.40;99.90;;;;;;5135880;27;20474;-61
2021/09/26 00:20:21;;;;;;;19.20;17.33;;;18.30;99.90;;;;;;5121825;27;20472;-61
2021/09/26 00:22:48;;;;;;;18.67;16.97;;;18.30;99.90;;;;;;5135867;27;20474;-62
2021/09/26 00:25:16;;;;;;;17.73;16.03;;;18.30;99.90;;;;;;5135237;27;20482;-61
2021/09/26 00:27:47;;;;;;;17.60;15.93;;;18.30;99.90;;;;;;5135802;27;20543;-62
2021/09/26 00:30:15;;;;;;;20.70;18.33;;;18.30;99.90;;;;;;5135270;27;20468;-61
2021/09/26 00:32:43;;;;;;;18.33;16.73;;;18.30;99.90;;;;;;5135562;27;20895;-61
2021/09/26 00:35:15;;;;;;;20.50;18.60;;;18.30;99.90;;;;;;5135212;27;20824;-62
2021/09/26 00:37:42;;;;;;;20.50;18.50;;;18.30;99.90;;;;;;5135668;27;20466;-62
2021/09/26 00:40:10;;;;;;;21.70;19.73;;;18.30;99.90;;;;;;5134899;27;20468;-62
2021/09/26 00:42:37;;;;;;;23.57;21.17;;;18.30;99.90;;;;;;5135551;27;20464;-61
2021/09/26 00:45:05;;;;;;;20.50;18.37;;;18.30;99.90;;;;;;5135285;27;20472;-62
2021/09/26 00:47:32;;;;;;;22.53;20.40;;;18.30;99.90;;;;;;5134796;27;20452;-61
2021/09/26 00:50:01;;;;;;;21.30;19.30;;;18.30;99.90;;;;;;5135093;27;20482;-62
2021/09/26 00:52:30;;;;;;;18.67;16.97;;;18.30;99.90;;;;;;5134747;27;20470;-62
2021/09/26 00:54:57;;;;;;;19.93;18.17;;;18.30;99.90;;;;;;5134088;27;20495;-62
2021/09/26 00:57:24;;;;;;;19.93;18.03;;;18.30;99.90;;;;;;5134768;27;20467;-62
2021/09/26 00:59:51;;;;;;;19.57;17.77;;;18.30;99.90;;;;;;5130338;27;20464;-61
2021/09/26 01:02:18;;;;;;;18.67;16.97;;;18.30;99.90;;;;;;5127467;27;20977;-61
2021/09/26 01:04:45;;;;;;;19.63;17.77;;;18.30;99.90;;;;;;5134846;27;20473;-62
2021/09/26 01:07:21;;;;;;;18.00;16.30;;;18.40;99.90;;;;;;5134290;27;20482;-62
2021/09/26 01:09:57;;;;;;;19.03;17.23;;;18.40;99.90;;;;;;5135818;27;20971;-62
2021/09/26 01:12:34;;;;;;;19.77;17.90;;;18.30;99.90;;;;;;5138773;27;20480;-62
2021/09/26 01:15:05;;;;;;;17.73;16.17;;;18.40;99.90;;;;;;5136473;27;20491;-62
2021/09/26 01:17:39;;;;;;;20.07;18.27;;;18.40;99.90;;;;;;5134121;27;20797;-62
2021/09/26 01:20:46;;;;;;;21.40;19.27;;;18.40;99.90;;;;;;5134720;27;20467;-62
2021/09/26 01:23:48;;;;;;;20.17;18.30;;;18.40;99.90;;;;;;5125541;27;20457;-62
2021/09/26 01:26:41;;;;;;;23.07;20.67;;;18.40;99.90;;;;;;5122997;27;20512;-62
2021/09/26 01:29:32;;;;;;;22.80;20.60;;;18.40;99.90;;;;;;5117118;27;20461;-62
2021/09/26 01:32:03;;;;;;;22.10;19.90;;;18.50;99.90;;;;;;5133978;27;20540;-62
2021/09/26 01:34:38;;;;;;;23.60;21.40;;;18.50;99.90;;;;;;5134341;27;20476;-62
2021/09/26 01:37:11;;;;;;;24.67;22.47;;;18.50;99.90;;;;;;5126503;27;20482;-62
2021/09/26 01:39:45;;;;;;;20.83;18.93;;;18.50;99.90;;;;;;5133887;27;20965;-62
2021/09/26 01:42:18;;;;;;;27.33;24.83;;;18.50;99.90;;;;;;5133462;27;20469;-62
2021/09/26 01:44:51;;;;;;;22.73;20.40;;;18.50;99.90;;;;;;5134263;27;20460;-62
2021/09/26 01:47:23;;;;;;;19.90;18.00;;;18.50;99.90;;;;;;5133612;27;20793;-62
2021/09/26 01:49:53;;;;;;;21.43;19.43;;;18.50;99.90;;;;;;5134022;27;20474;-62
2021/09/26 01:52:22;;;;;;;20.57;18.77;;;18.50;99.90;;;;;;5133632;27;20951;-62
2021/09/26 01:54:50;;;;;;;22.37;20.27;;;18.50;99.90;;;;;;5133993;27;20482;-62
2021/09/26 01:57:20;;;;;;;20.73;19.00;;;18.50;99.90;;;;;;5133181;27;20516;-62
2021/09/26 01:59:49;;;;;;;21.33;19.37;;;18.50;99.90;;;;;;5133356;27;20478;-62
2021/09/26 02:02:18;;;;;;;19.67;17.87;;;18.50;99.90;;;;;;5133575;27;20452;-62
2021/09/26 02:04:49;;;;;;;23.23;21.00;;;18.50;99.90;;;;;;5133557;27;20958;-62
2021/09/26 02:07:16;;;;;;;21.00;18.90;;;18.50;99.90;;;;;;5133375;27;20455;-62
2021/09/26 02:09:46;;;;;;;19.80;17.97;;;18.50;99.90;;;;;;5134613;27;20467;-62
2021/09/26 02:12:14;;;;;;;19.93;18.07;;;18.50;99.90;;;;;;5133373;27;20464;-61
2021/09/26 02:14:43;;;;;;;21.37;19.47;;;18.50;99.90;;;;;;5133516;27;20467;-62
2021/09/26 02:17:11;;;;;;;19.80;17.90;;;18.50;99.90;;;;;;5133540;27;20467;-62
2021/09/26 02:19:39;;;;;;;21.10;19.27;;;18.50;99.90;;;;;;5133404;27;21004;-62
2021/09/26 02:22:08;;;;;;;22.20;20.20;;;18.50;99.90;;;;;;5133377;27;20467;-62
2021/09/26 02:24:35;;;;;;;24.10;21.80;;;18.50;99.90;;;;;;5133715;27;20469;-62
2021/09/26 02:27:03;;;;;;;20.77;18.97;;;18.50;99.90;;;;;;5132716;27;20468;-62
2021/09/26 02:29:30;;;;;;;20.33;18.50;;;18.50;99.90;;;;;;5133397;27;20474;-62
2021/09/26 02:31:57;;;;;;;22.47;20.47;;;18.50;99.90;;;;;;5133458;27;20471;-62
2021/09/26 02:34:24;;;;;;;20.13;18.33;;;18.50;99.90;;;;;;5132843;27;21192;-62
2021/09/26 02:36:51;;;;;;;19.20;17.40;;;18.50;99.90;;;;;;5133560;27;20463;-62
2021/09/26 02:39:20;;;;;;;21.37;19.27;;;18.50;99.90;;;;;;5132826;27;20474;-62
2021/09/26 02:41:56;;;;;;;20.97;19.10;;;18.50;99.90;;;;;;5132110;27;20840;-62
2021/09/26 02:44:31;;;;;;;20.47;18.60;;;18.50;99.90;;;;;;5118577;27;20796;-62
2021/09/26 02:47:04;;;;;;;20.00;18.10;;;18.50;99.90;;;;;;5133324;27;20469;-62
2021/09/26 02:49:31;;;;;;;18.77;17.03;;;18.50;99.90;;;;;;5122448;27;20463;-62
2021/09/26 02:51:59;;;;;;;21.53;19.47;;;18.50;99.90;;;;;;5133114;27;20459;-62
2021/09/26 02:54:27;;;;;;;20.70;18.60;;;18.50;99.90;;;;;;5132911;27;20992;-62
2021/09/26 02:56:55;;;;;;;20.40;18.53;;;18.50;99.90;;;;;;5133119;27;20463;-61
2021/09/26 02:59:22;;;;;;;18.90;17.30;;;18.50;99.90;;;;;;5132771;27;20478;-62
2021/09/26 03:01:51;;;;;;;18.73;17.03;;;18.50;99.90;;;;;;5133090;27;20487;-62
2021/09/26 03:04:18;;;;;;;20.13;18.43;;;18.50;99.90;;;;;;5132860;27;20459;-62
2021/09/26 03:06:44;;;;;;;22.33;20.47;;;18.50;99.90;;;;;;5133227;27;20812;-62
2021/09/26 03:09:11;;;;;;;19.57;17.77;;;18.50;99.90;;;;;;5132509;27;20672;-62
2021/09/26 03:11:40;;;;;;;21.40;19.40;;;18.50;99.90;;;;;;5133249;27;20466;-62
2021/09/26 03:14:07;;;;;;;19.90;18.10;;;18.50;99.90;;;;;;5133146;27;20542;-62
2021/09/26 03:16:34;;;;;;;19.30;17.30;;;18.60;99.90;;;;;;5132927;27;21567;-62
2021/09/26 03:19:00;;;;;;;30.60;27.50;;;18.60;99.90;;;;;;5135482;27;20474;-62
2021/09/26 03:21:28;;;;;;;26.30;23.70;;;18.60;99.90;;;;;;5136362;27;20485;-62
2021/09/26 03:23:55;;;;;;;24.87;22.30;;;18.60;99.90;;;;;;5137299;27;21082;-62
2021/09/26 03:26:22;;;;;;;24.00;21.70;;;18.60;99.90;;;;;;5136888;27;20567;-62
2021/09/26 03:28:50;;;;;;;20.83;18.83;;;18.60;99.90;;;;;;5136941;27;20478;-62
2021/09/26 03:31:17;;;;;;;33.60;30.03;;;18.60;99.90;;;;;;5136358;27;20467;-62
2021/09/26 03:33:44;;;;;;;32.63;29.23;;;18.60;99.90;;;;;;5136692;27;20455;-62
2021/09/26 03:36:11;;;;;;;23.93;21.63;;;18.60;99.90;;;;;;5136196;27;20470;-62
2021/09/26 03:38:38;;;;;;;26.47;23.67;;;18.60;99.90;;;;;;5132101;27;20474;-62
2021/09/26 03:41:05;;;;;;;25.30;22.70;;;18.60;99.90;;;;;;5136732;27;20965;-63
2021/09/26 03:43:32;;;;;;;24.97;22.57;;;18.60;99.90;;;;;;5136472;27;20459;-62
2021/09/26 03:46:00;;;;;;;22.03;19.93;;;18.60;99.90;;;;;;5136464;27;20971;-62
2021/09/26 03:48:27;;;;;;;19.97;18.17;;;18.60;99.90;;;;;;5135872;27;20466;-63
2021/09/26 03:50:54;;;;;;;18.80;17.10;;;18.60;99.90;;;;;;5135897;27;20468;-62
2021/09/26 03:53:21;;;;;;;18.10;16.40;;;18.60;99.90;;;;;;5131025;27;20469;-62
2021/09/26 03:55:48;;;;;;;19.73;17.87;;;18.70;99.90;;;;;;5136294;27;20469;-62
2021/09/26 03:58:15;;;;;;;19.63;17.83;;;18.70;99.90;;;;;;5135916;27;20474;-62
2021/09/26 04:00:41;;;;;;;23.57;21.20;;;18.70;99.90;;;;;;5136182;27;21089;-62
2021/09/26 04:03:10;;;;;;;21.97;19.93;;;18.70;99.90;;;;;;5136136;27;20463;-63
2021/09/26 04:05:36;;;;;;;26.60;23.90;;;18.70;99.90;;;;;;5134948;27;20463;-62
2021/09/26 04:08:03;;;;;;;31.33;28.03;;;18.60;99.90;;;;;;5136184;27;20808;-62
2021/09/26 04:10:31;;;;;;;34.73;31.03;;;18.60;99.90;;;;;;5135588;27;20482;-62
2021/09/26 04:12:58;;;;;;;123.80;92.30;;;18.70;99.90;;;;;;5135964;27;20470;-62
2021/09/26 04:15:24;;;;;;;78.73;64.87;;;18.70;99.90;;;;;;5129853;27;20468;-62
2021/09/26 04:17:51;;;;;;;43.17;38.67;;;18.70;99.90;;;;;;5136045;27;20474;-62
2021/09/26 04:20:19;;;;;;;38.60;34.53;;;18.70;99.90;;;;;;5135545;27;20945;-62
2021/09/26 04:22:46;;;;;;;31.07;27.90;;;18.70;99.90;;;;;;5135911;27;20455;-62
2021/09/26 04:25:14;;;;;;;57.97;49.83;;;18.70;99.90;;;;;;5135835;27;20486;-62
2021/09/26 04:27:40;;;;;;;30.80;27.60;;;18.70;99.90;;;;;;5135578;27;20469;-62
2021/09/26 04:30:09;;;;;;;23.77;21.50;;;18.70;99.90;;;;;;5134196;27;20477;-63
2021/09/26 04:32:36;;;;;;;21.60;19.60;;;18.70;99.90;;;;;;5130002;27;20460;-62
2021/09/26 04:35:05;;;;;;;20.50;18.60;;;18.70;99.90;;;;;;5135980;27;20871;-62
2021/09/26 04:37:33;;;;;;;23.40;21.10;;;18.70;99.90;;;;;;5135091;27;20902;-62
2021/09/26 04:40:00;;;;;;;20.30;18.50;;;18.70;99.90;;;;;;5135649;27;20468;-63
2021/09/26 04:42:27;;;;;;;18.20;16.50;;;18.80;99.90;;;;;;5133935;27;20467;-62
2021/09/26 04:44:53;;;;;;;15.87;14.47;;;18.70;99.90;;;;;;5135042;27;20460;-62
2021/09/26 04:47:20;;;;;;;29.13;26.23;;;18.70;99.90;;;;;;5135079;27;20474;-62
2021/09/26 04:49:47;;;;;;;21.77;19.60;;;18.70;99.90;;;;;;5135506;27;20473;-62
2021/09/26 04:52:14;;;;;;;18.30;16.70;;;18.70;99.90;;;;;;5135287;27;20800;-62
2021/09/26 04:54:42;;;;;;;29.17;26.10;;;18.70;99.90;;;;;;5134959;27;20462;-62
2021/09/26 04:57:09;;;;;;;27.20;24.10;;;18.70;99.90;;;;;;5135193;27;20463;-61
2021/09/26 04:59:36;;;;;;;31.60;28.47;;;18.70;99.90;;;;;;5134780;27;20467;-62
2021/09/26 05:02:03;;;;;;;26.50;23.87;;;18.60;99.90;;;;;;5135201;27;20472;-62
2021/09/26 05:04:31;;;;;;;36.60;32.60;;;18.60;99.90;;;;;;5135020;27;20979;-62
2021/09/26 05:06:58;;;;;;;32.07;28.60;;;18.60;99.90;;;;;;5134946;27;20863;-62
2021/09/26 05:09:25;;;;;;;25.63;23.23;;;18.60;99.90;;;;;;5134413;27;20467;-61
2021/09/26 05:11:54;;;;;;;55.30;45.60;;;18.60;99.90;;;;;;5135106;27;20471;-62
2021/09/26 05:14:21;;;;;;;21.53;19.57;;;18.60;99.90;;;;;;5134484;27;20551;-61
2021/09/26 05:16:48;;;;;;;30.87;27.57;;;18.60;99.90;;;;;;5134853;27;20460;-62
2021/09/26 05:19:15;;;;;;;26.70;24.03;;;18.50;99.90;;;;;;5134957;27;20973;-62
2021/09/26 05:21:42;;;;;;;20.03;18.20;;;18.50;99.90;;;;;;5134468;27;20496;-62
2021/09/26 05:24:09;;;;;;;23.17;20.77;;;18.50;99.90;;;;;;5134530;27;20957;-62
2021/09/26 05:26:36;;;;;;;21.97;19.97;;;18.50;99.90;;;;;;5134289;27;20474;-62
2021/09/26 05:29:06;;;;;;;22.97;20.67;;;18.60;99.90;;;;;;5128475;27;20477;-62
2021/09/26 05:31:33;;;;;;;24.67;22.37;;;18.60;99.90;;;;;;5134204;27;20467;-62
2021/09/26 05:34:00;;;;;;;19.73;17.97;;;18.60;99.90;;;;;;5134614;27;20459;-62
2021/09/26 05:36:27;;;;;;;22.50;20.40;;;18.60;99.90;;;;;;5134015;27;20468;-62
2021/09/26 05:38:54;;;;;;;18.80;17.10;;;18.60;99.90;;;;;;5134299;27;20466;-63
2021/09/26 05:41:21;;;;;;;20.77;18.60;;;18.60;99.90;;;;;;5133745;27;20464;-62
2021/09/26 05:43:48;;;;;;;22.07;19.90;;;18.70;99.90;;;;;;5134288;27;20459;-62
2021/09/26 05:46:16;;;;;;;19.67;17.77;;;18.60;99.90;;;;;;5133108;27;20470;-62
2021/09/26 05:48:43;;;;;;;21.90;19.80;;;18.70;99.90;;;;;;5133711;27;20460;-62
2021/09/26 05:51:10;;;;;;;22.50;20.23;;;18.60;99.90;;;;;;5134268;27;20464;-62
2021/09/26 05:53:37;;;;;;;18.90;17.20;;;18.60;99.90;;;;;;5133819;27;20470;-62
2021/09/26 05:56:04;;;;;;;25.93;23.33;;;18.60;99.90;;;;;;5134230;27;20481;-62
2021/09/26 05:58:31;;;;;;;25.10;22.67;;;18.60;99.90;;;;;;5133478;27;20468;-62
2021/09/26 06:00:58;;;;;;;36.30;32.30;;;18.70;99.90;;;;;;5134253;27;20953;-62
2021/09/26 06:03:26;;;;;;;25.20;22.57;;;18.70;99.90;;;;;;5133433;27;20468;-62
2021/09/26 06:05:53;;;;;;;20.63;18.83;;;18.70;99.90;;;;;;5134263;27;20455;-62
2021/09/26 06:08:20;;;;;;;21.37;19.10;;;18.70;99.90;;;;;;5133882;27;20466;-62
2021/09/26 06:10:46;;;;;;;22.37;19.97;;;18.70;99.90;;;;;;5133615;27;20993;-62
2021/09/26 06:13:13;;;;;;;18.60;16.90;;;18.70;99.90;;;;;;5132164;27;20477;-62
2021/09/26 06:15:40;;;;;;;42.83;33.00;;;18.70;99.90;;;;;;5121592;27;20494;-62
2021/09/26 06:18:07;;;;;;;23.53;21.23;;;18.80;99.90;;;;;;5133804;27;20474;-62
2021/09/26 06:20:35;;;;;;;22.67;20.47;;;18.70;99.90;;;;;;5133595;27;20798;-62
2021/09/26 06:23:02;;;;;;;17.90;16.30;;;18.70;99.90;;;;;;5133254;27;20475;-62
2021/09/26 06:25:29;;;;;;;19.80;17.83;;;18.80;99.90;;;;;;5138409;27;20770;-61
2021/09/26 06:27:56;;;;;;;21.97;20.00;;;18.70;99.90;;;;;;5133499;27;20469;-61
2021/09/26 06:30:23;;;;;;;22.23;20.03;;;18.70;99.90;;;;;;5133483;27;20482;-62
2021/09/26 06:32:50;;;;;;;20.80;18.90;;;18.80;99.90;;;;;;5141437;27;20451;-62
2021/09/26 06:35:17;;;;;;;20.13;18.13;;;18.90;99.90;;;;;;5133532;27;20797;-62
2021/09/26 06:37:45;;;;;;;31.67;28.67;;;18.80;99.90;;;;;;5132080;27;20467;-62
2021/09/26 06:40:13;;;;;;;25.33;22.77;;;18.80;99.90;;;;;;5133121;27;20968;-62
2021/09/26 06:42:40;;;;;;;21.10;18.70;;;18.90;99.90;;;;;;5133133;27;20474;-62
2021/09/26 06:45:08;;;;;;;19.90;17.90;;;18.90;99.90;;;;;;5133268;27;20466;-62
2021/09/26 06:47:36;;;;;;;20.73;18.70;;;19.00;99.90;;;;;;5132724;27;20456;-62
2021/09/26 06:50:03;;;;;;;19.30;17.50;;;19.00;99.90;;;;;;5131705;27;20468;-62
2021/09/26 06:52:30;;;;;;;15.80;14.47;;;19.10;99.90;;;;;;5131998;27;20783;-61
2021/09/26 06:54:58;;;;;;;30.30;25.00;;;19.10;99.90;;;;;;5137510;27;20464;-62
2021/09/26 06:57:25;;;;;;;16.80;15.20;;;19.10;99.90;;;;;;5140194;27;20459;-62
2021/09/26 06:59:51;;;;;;;16.93;15.10;;;19.10;99.90;;;;;;5142015;27;20949;-62
2021/09/26 07:02:21;;;;;;;16.57;14.87;;;19.10;99.90;;;;;;5137611;27;20464;-62
2021/09/26 07:04:48;;;;;;;16.33;14.73;;;19.20;99.90;;;;;;5137236;27;20847;-62
2021/09/26 07:07:15;;;;;;;14.97;13.63;;;19.20;99.90;;;;;;5137364;27;21041;-61
2021/09/26 07:09:42;;;;;;;16.50;14.83;;;19.20;99.90;;;;;;5136978;27;21012;-61
2021/09/26 07:12:11;;;;;;;14.80;13.50;;;19.20;99.90;;;;;;5137222;27;20468;-62
2021/09/26 07:14:38;;;;;;;15.60;14.20;;;19.20;99.90;;;;;;5136855;27;20485;-62
2021/09/26 07:17:05;;;;;;;15.87;14.37;;;19.20;99.90;;;;;;5137300;27;20464;-62
2021/09/26 07:19:31;;;;;;;13.00;11.90;;;19.20;99.90;;;;;;5136749;27;20477;-62
2021/09/26 07:21:58;;;;;;;17.47;15.83;;;19.30;99.90;;;;;;5137410;27;20544;-61
2021/09/26 07:24:25;;;;;;;18.00;16.40;;;19.40;99.90;;;;;;5137172;27;20900;-62
2021/09/26 07:26:52;;;;;;;15.90;14.60;;;19.50;99.90;;;;;;5136557;27;20459;-62
2021/09/26 07:29:20;;;;;;;13.20;12.13;;;19.50;99.90;;;;;;5136646;27;20546;-62
2021/09/26 07:31:47;;;;;;;16.83;15.13;;;19.50;99.90;;;;;;5136756;27;20477;-62
2021/09/26 07:34:14;;;;;;;14.87;13.37;;;19.50;99.90;;;;;;5136844;27;20463;-62
2021/09/26 07:36:43;;;;;;;15.97;14.37;;;19.60;99.90;;;;;;5136353;27;20465;-62
2021/09/26 07:39:10;;;;;;;14.90;13.50;;;19.60;99.90;;;;;;5130685;27;20961;-62
2021/09/26 07:41:37;;;;;;;15.27;13.80;;;19.60;99.90;;;;;;5136513;27;20467;-61
2021/09/26 07:44:04;;;;;;;15.23;13.90;;;19.70;99.90;;;;;;5136512;27;20554;-62
2021/09/26 07:46:32;;;;;;;17.43;15.00;;;19.70;99.90;;;;;;5136511;27;20459;-62
2021/09/26 07:48:59;;;;;;;14.17;12.97;;;19.80;99.90;;;;;;5136445;27;20455;-61
2021/09/26 07:51:26;;;;;;;12.70;11.60;;;19.80;99.90;;;;;;5135964;27;20475;-62
2021/09/26 07:53:52;;;;;;;14.40;13.20;;;19.80;99.90;;;;;;5135163;27;20485;-62
2021/09/26 07:56:20;;;;;;;12.87;11.80;;;19.90;99.90;;;;;;5136590;27;20490;-62
2021/09/26 07:58:46;;;;;;;13.97;12.70;;;19.90;99.90;;;;;;5139468;27;20467;-62
2021/09/26 08:01:14;;;;;;;12.53;11.47;;;20.00;99.90;;;;;;5136424;27;20554;-61
2021/09/26 08:03:42;;;;;;;12.63;11.47;;;20.00;99.90;;;;;;5135574;27;20476;-62
2021/09/26 08:06:09;;;;;;;12.33;11.30;;;20.00;99.90;;;;;;5136530;27;20559;-62
2021/09/26 08:08:37;;;;;;;11.47;10.53;;;20.10;99.90;;;;;;5135816;27;20470;-62
2021/09/26 08:11:05;;;;;;;11.57;10.67;;;20.10;99.90;;;;;;5136284;27;20482;-62
2021/09/26 08:13:32;;;;;;;9.97;9.17;;;20.20;99.90;;;;;;5136202;27;20463;-62
2021/09/26 08:15:59;;;;;;;9.53;8.73;;;20.20;99.90;;;;;;5135879;27;20473;-62
2021/09/26 08:18:26;;;;;;;9.87;9.07;;;20.30;99.90;;;;;;5136033;27;20459;-62
2021/09/26 08:20:54;;;;;;;9.27;8.53;;;20.30;99.90;;;;;;5135813;27;20464;-62
2021/09/26 08:23:21;;;;;;;11.27;10.33;;;20.40;99.90;;;;;;5136117;27;20466;-62
2021/09/26 08:25:48;;;;;;;10.57;9.70;;;20.40;99.90;;;;;;5135368;27;20470;-62
2021/09/26 08:28:15;;;;;;;10.33;9.40;;;20.50;99.90;;;;;;5136019;27;20472;-62
2021/09/26 08:30:42;;;;;;;10.30;9.50;;;20.60;99.90;;;;;;5134977;27;20949;-61
2021/09/26 08:33:08;;;;;;;9.43;8.77;;;20.60;99.90;;;;;;5135746;27;20471;-61
2021/09/26 08:35:35;;;;;;;10.33;8.50;;;20.70;99.90;;;;;;5135581;27;20979;-62
2021/09/26 08:38:04;;;;;;;9.87;8.87;;;20.70;99.90;;;;;;5135570;27;20459;-62
2021/09/26 08:40:31;;;;;;;10.43;9.43;;;20.70;99.90;;;;;;5135453;27;20559;-62
2021/09/26 08:42:58;;;;;;;9.67;8.60;;;20.80;99.90;;;;;;5135321;27;20470;-62
2021/09/26 08:45:26;;;;;;;9.60;8.80;;;20.80;99.90;;;;;;5135516;27;20793;-62
2021/09/26 08:47:53;;;;;;;9.97;9.17;;;20.90;99.90;;;;;;5135249;27;20791;-62
2021/09/26 08:50:23;;;;;;;11.60;10.70;;;21.00;99.90;;;;;;5135380;27;20460;-62
2021/09/26 08:52:50;;;;;;;9.40;8.60;;;21.10;99.90;;;;;;5135032;27;20464;-61
2021/09/26 08:55:19;;;;;;;11.70;9.63;;;21.00;99.90;;;;;;5135311;27;20467;-61
2021/09/26 08:57:46;;;;;;;9.60;8.90;;;21.10;99.90;;;;;;5135022;27;20468;-62
2021/09/26 09:00:15;;;;;;;11.40;10.30;;;21.20;99.90;;;;;;5135341;27;20494;-62
2021/09/26 09:02:42;;;;;;;9.30;8.60;;;21.30;99.90;;;;;;5135135;27;20470;-62
2021/09/26 09:05:28;;;;;;;10.20;9.17;;;21.30;99.90;;;;;;5133841;27;20465;-62
2021/09/26 09:08:08;;;;;;;9.93;9.13;;;21.30;99.90;;;;;;5133982;27;20471;-61
2021/09/26 09:10:41;;;;;;;9.70;9.00;;;21.30;99.90;;;;;;5134124;27;20463;-62
2021/09/26 09:13:10;;;;;;;10.87;9.87;;;21.40;99.90;;;;;;5134704;27;20456;-62
2021/09/26 09:15:37;;;;;;;9.67;8.90;;;21.40;99.90;;;;;;5134194;27;20479;-61
2021/09/26 09:18:05;;;;;;;10.27;9.47;;;21.40;99.90;;;;;;5134947;27;20468;-62
2021/09/26 09:20:34;;;;;;;9.70;8.93;;;21.50;99.90;;;;;;5134582;27;20463;-62
2021/09/26 09:23:09;;;;;;;10.77;9.83;;;21.60;99.90;;;;;;5134954;27;20467;-62
2021/09/26 09:25:40;;;;;;;9.33;8.50;;;21.50;99.90;;;;;;5134738;27;20939;-61
2021/09/26 09:28:09;;;;;;;10.07;8.53;;;21.70;99.90;;;;;;5134552;27;20477;-62
2021/09/26 09:30:38;;;;;;;8.10;7.23;;;21.80;99.90;;;;;;5134303;27;20461;-62
2021/09/26 09:33:08;;;;;;;8.70;8.00;;;21.80;99.90;;;;;;5134773;27;20842;-62
2021/09/26 09:35:37;;;;;;;8.80;8.10;;;21.80;99.90;;;;;;5134176;27;20473;-62
2021/09/26 09:38:05;;;;;;;7.80;7.20;;;21.90;99.90;;;;;;5134370;27;20470;-61
2021/09/26 09:40:32;;;;;;;7.63;7.03;;;21.90;99.90;;;;;;5134368;27;20467;-62
2021/09/26 09:43:00;;;;;;;9.00;8.20;;;21.90;99.90;;;;;;5134291;27;20552;-62
2021/09/26 09:45:30;;;;;;;8.23;7.63;;;22.00;99.90;;;;;;5133986;27;20464;-62
2021/09/26 09:48:03;;;;;;;7.60;7.10;;;22.00;99.90;;;;;;5134591;27;20463;-62
2021/09/26 09:50:42;;;;;;;9.03;8.23;;;22.10;99.90;;;;;;5133795;27;20468;-62
2021/09/26 09:53:09;;;;;;;9.37;8.40;;;22.20;99.90;;;;;;5134125;27;20459;-62
2021/09/26 09:55:37;;;;;;;7.53;6.93;;;22.20;99.90;;;;;;5133820;27;20539;-62
2021/09/26 09:58:16;;;;;;;8.07;7.37;;;22.30;99.90;;;;;;5134244;27;20456;-61
2021/09/26 10:00:48;;;;;;;7.33;6.73;;;22.30;99.90;;;;;;5134253;27;21580;-62
2021/09/26 10:03:34;;;;;;;6.97;6.47;;;22.40;99.90;;;;;;5134146;27;20463;-61
2021/09/26 10:06:02;;;;;;;7.00;6.40;;;22.40;99.90;;;;;;5134183;27;20464;-62
2021/09/26 10:08:33;;;;;;;6.93;6.43;;;22.50;99.90;;;;;;5134227;27;20547;-61
2021/09/26 10:11:06;;;;;;;8.10;7.40;;;22.50;99.90;;;;;;5133787;27;20464;-62
2021/09/26 10:13:36;;;;;;;6.60;6.10;;;22.50;99.90;;;;;;5133852;27;20456;-62
2021/09/26 10:16:05;;;;;;;7.50;7.00;;;22.60;99.90;;;;;;5133825;27;20459;-61
2021/09/26 10:18:32;;;;;;;7.80;7.17;;;22.50;99.90;;;;;;5134058;27;20460;-61
2021/09/26 10:21:01;;;;;;;6.83;6.23;;;22.60;99.90;;;;;;5134173;27;20468;-62
2021/09/26 10:23:28;;;;;;;5.63;5.13;;;22.70;99.90;;;;;;5133646;27;21263;-61
2021/09/26 10:25:56;;;;;;;6.37;5.87;;;22.80;99.90;;;;;;5134054;27;20459;-61
2021/09/26 10:28:26;;;;;;;6.80;6.30;;;22.70;99.90;;;;;;5133333;27;20459;-62
2021/09/26 10:30:55;;;;;;;7.07;6.40;;;22.80;99.90;;;;;;5133763;27;20964;-62
2021/09/26 10:33:23;;;;;;;6.20;5.70;;;22.80;99.90;;;;;;5133513;27;20455;-61
2021/09/26 10:35:51;;;;;;;6.57;6.07;;;22.80;99.90;;;;;;5133310;27;20455;-61
2021/09/26 10:38:18;;;;;;;5.77;5.40;;;22.90;99.90;;;;;;5112550;27;20479;-61
2021/09/26 10:40:45;;;;;;;4.90;4.60;;;22.90;99.90;;;;;;5113167;27;20483;-62
2021/09/26 10:43:20;;;;;;;6.87;5.73;;;23.00;99.90;;;;;;5112651;27;20798;-62
2021/09/26 10:45:48;;;;;;;5.33;4.93;;;23.10;99.90;;;;;;5117900;27;20956;-61
2021/09/26 10:48:16;;;;;;;5.20;4.90;;;23.10;99.90;;;;;;5133274;27;20460;-62
2021/09/26 10:50:44;;;;;;;6.00;5.60;;;23.10;99.90;;;;;;5133670;27;20459;-61
2021/09/26 10:53:12;;;;;;;5.97;5.37;;;23.20;99.90;;;;;;5133154;27;20474;-61
2021/09/26 10:55:40;;;;;;;7.50;6.90;;;23.30;99.90;;;;;;5133742;27;20459;-61
2021/09/26 10:58:21;;;;;;;6.40;5.90;;;23.40;99.90;;;;;;5132956;27;20460;-61
2021/09/26 11:00:54;;;;;;;6.83;6.33;;;23.40;99.90;;;;;;5133370;27;20473;-62
2021/09/26 11:03:33;;;;;;;5.70;5.20;;;23.40;99.90;;;;;;5132878;27;20470;-61
2021/09/26 11:06:00;;;;;;;5.27;4.87;;;23.40;99.90;;;;;;5133510;27;20470;-62
2021/09/26 11:08:44;;;;;;;5.93;5.33;;;23.50;99.90;;;;;;5133016;27;20966;-62
2021/09/26 11:11:40;;;;;;;5.70;5.20;;;23.50;99.90;;;;;;5133148;27;21004;-61
2021/09/26 11:14:09;;;;;;;5.07;4.73;;;23.50;99.90;;;;;;5133044;27;20805;-61
2021/09/26 11:16:49;;;;;;;7.37;5.60;;;23.50;99.90;;;;;;5133448;27;20793;-62
2021/09/26 11:19:19;;;;;;;4.63;4.33;;;23.60;99.90;;;;;;5132804;27;20474;-61
2021/09/26 11:21:51;;;;;;;5.10;4.70;;;23.60;99.90;;;;;;5133366;27;20967;-62
2021/09/26 11:24:39;;;;;;;4.90;4.60;;;23.70;99.60;;;;;;5132917;27;20490;-61
2021/09/26 11:27:15;;;;;;;5.20;4.80;;;23.70;99.50;;;;;;5133192;27;20976;-62
2021/09/26 11:30:16;;;;;;;4.40;4.10;;;23.80;99.40;;;;;;5133225;27;21244;-62
2021/09/26 11:32:44;;;;;;;5.30;5.00;;;23.80;99.40;;;;;;5120468;27;20886;-62
2021/09/26 11:35:32;;;;;;;4.60;4.30;;;23.80;99.40;;;;;;5132761;27;20466;-61
2021/09/26 11:38:01;;;;;;;5.50;5.03;;;23.80;99.40;;;;;;5132501;27;20491;-61
2021/09/26 11:41:02;;;;;;;5.60;5.10;;;23.80;99.40;;;;;;5135697;27;20899;-62
2021/09/26 11:43:34;;;;;;;5.90;5.40;;;23.80;99.30;;;;;;5136603;27;20538;-61
2021/09/26 11:46:13;;;;;;;5.03;4.63;;;23.80;99.50;;;;;;5136690;27;20464;-62
2021/09/26 11:48:40;;;;;;;6.80;6.30;;;23.90;99.30;;;;;;5137058;27;20826;-61
2021/09/26 11:51:12;;;;;;;5.57;5.17;;;23.90;99.10;;;;;;5136182;27;20508;-62
2021/09/26 11:53:43;;;;;;;4.67;4.37;;;23.90;99.30;;;;;;5136606;27;20492;-62
2021/09/26 11:56:15;;;;;;;7.77;6.97;;;24.00;99.40;;;;;;5135960;27;20595;-61
2021/09/26 11:58:42;;;;;;;6.43;6.03;;;24.00;99.30;;;;;;5136353;27;20467;-61
2021/09/26 12:01:09;;;;;;;6.93;6.43;;;24.00;99.10;;;;;;5135971;27;20463;-62
2021/09/26 12:03:36;;;;;;;5.93;5.43;;;24.00;99.10;;;;;;5136207;27;20475;-61
2021/09/26 12:06:04;;;;;;;5.20;4.80;;;24.00;99.00;;;;;;5135806;27;20472;-61
2021/09/26 12:08:39;;;;;;;6.97;6.33;;;24.10;99.10;;;;;;5136282;27;20467;-61
2021/09/26 12:11:08;;;;;;;5.10;4.60;;;24.20;99.10;;;;;;5135398;27;20463;-62
2021/09/26 12:13:46;;;;;;;5.90;5.50;;;24.10;98.90;;;;;;5123538;27;20475;-62
2021/09/26 12:16:14;;;;;;;5.83;5.23;;;24.20;99.00;;;;;;5117336;27;20483;-61
2021/09/26 12:18:41;;;;;;;6.20;5.70;;;24.20;98.60;;;;;;5135973;27;20456;-61
2021/09/26 12:21:10;;;;;;;5.23;4.83;;;24.30;98.70;;;;;;5135464;27;20547;-61
2021/09/26 12:23:48;;;;;;;5.70;5.20;;;24.30;98.30;;;;;;5135998;27;20520;-62
2021/09/26 12:26:21;;;;;;;6.17;5.67;;;24.30;98.20;;;;;;5135748;27;21274;-62
2021/09/26 12:29:04;;;;;;;5.83;5.33;;;24.30;98.00;;;;;;5135823;27;20470;-61
2021/09/26 12:31:32;;;;;;;5.37;4.97;;;24.20;98.00;;;;;;5130804;27;20762;-62
2021/09/26 12:33:59;;;;;;;6.17;5.67;;;24.30;98.20;;;;;;5131680;27;21159;-61
2021/09/26 12:36:30;;;;;;;5.77;4.90;;;24.20;98.10;;;;;;5135900;27;20985;-61
2021/09/26 12:38:59;;;;;;;6.50;6.00;;;24.20;98.00;;;;;;5135060;27;20771;-62
2021/09/26 12:41:30;;;;;;;5.50;5.00;;;24.30;98.00;;;;;;5126909;27;20529;-61
2021/09/26 12:43:59;;;;;;;5.00;4.57;;;24.30;97.90;;;;;;5135084;27;20465;-61